Time;durP1;ratioP1;P1;durP2;ratioP2;P2;SDS_P1;SDS_P2;PMS_P1;PMS_P2;Temp;Humidity;BMP_temperature;BMP_pressure;BME280_temperature;BME280_humidity;BME280_pressure;Samples;Min_cycle;Max_cycle;Signal;HPM_P1;HPM_P2
2023/09/23 00:03:33;;;;;;;1.52;0.80;;;;;;;15.01;97.83;99804.25;8291341;28;20499;-88
2023/09/23 00:07:34;;;;;;;1.70;1.20;;;;;;;14.99;98.05;99819.09;8279148;28;20168;-90
2023/09/23 00:11:37;;;;;;;1.15;0.85;;;;;;;14.96;98.15;99822.19;8280546;28;20037;-89
2023/09/23 00:15:41;;;;;;;3.53;1.33;;;;;;;14.92;98.02;99820.88;8276676;28;20130;-89
2023/09/23 00:19:41;;;;;;;1.70;1.05;;;;;;;14.92;97.80;99826.34;8272272;28;20045;-92
2023/09/23 00:23:44;;;;;;;2.95;1.30;;;;;;;14.87;98.38;99826.88;8240014;28;20038;-89
2023/09/23 00:27:45;;;;;;;3.60;1.10;;;;;;;14.85;98.05;99837.09;8295641;28;20065;-89
2023/09/23 00:31:46;;;;;;;1.80;0.80;;;;;;;14.74;99.47;99832.13;8264829;28;20041;-88
2023/09/23 00:35:47;;;;;;;6.32;1.02;;;;;;;14.53;99.37;99826.50;8257519;28;20034;-91
2023/09/23 00:39:48;;;;;;;2.38;0.98;;;;;;;14.62;99.29;99839.03;8220551;28;20111;-90
2023/09/23 00:43:50;;;;;;;4.13;1.55;;;;;;;14.56;99.25;99847.06;8275035;28;20033;-89
2023/09/23 00:47:52;;;;;;;2.42;1.10;;;;;;;14.29;100.00;99856.59;8280962;28;20045;-88
2023/09/23 00:51:52;;;;;;;10.07;0.90;;;;;;;14.31;100.00;99868.16;8283504;28;20093;-89
2023/09/23 00:55:55;;;;;;;3.38;0.75;;;;;;;14.11;100.00;99853.28;8277094;28;20503;-89
2023/09/23 00:59:56;;;;;;;3.40;0.90;;;;;;;14.00;100.00;99856.41;8284161;28;20590;-88
2023/09/23 01:03:57;;;;;;;5.35;0.90;;;;;;;14.16;100.00;99874.50;8289911;28;20654;-88
2023/09/23 01:08:04;;;;;;;5.70;1.67;;;;;;;14.42;100.00;99867.72;8282124;28;20442;-88
2023/09/23 01:12:07;;;;;;;5.05;0.93;;;;;;;14.58;100.00;99872.22;8264591;28;20421;-91
2023/09/23 01:16:12;;;;;;;2.70;0.93;;;;;;;14.43;99.96;99874.03;8252570;28;20037;-88
2023/09/23 01:20:13;;;;;;;5.63;1.45;;;;;;;14.31;99.88;99881.75;8237927;28;20029;-89
2023/09/23 01:24:17;;;;;;;3.35;1.00;;;;;;;14.16;100.00;99882.66;8277283;28;20038;-88
2023/09/23 01:28:18;;;;;;;2.15;0.90;;;;;;;14.15;100.00;99902.72;8288792;28;20588;-91
2023/09/23 01:32:48;;;;;;;2.20;0.70;;;;;;;13.76;100.00;99902.75;8269799;28;20048;-89
2023/09/23 01:36:48;;;;;;;7.80;1.13;;;;;;;13.42;100.00;99910.31;8285917;28;20142;-88
2023/09/23 01:40:50;;;;;;;1.80;0.60;;;;;;;13.16;100.00;99904.25;8298195;28;20042;-89
2023/09/23 01:44:52;;;;;;;2.33;0.65;;;;;;;13.02;100.00;99891.41;8280554;28;20046;-89
2023/09/23 01:48:52;;;;;;;4.85;1.45;;;;;;;13.23;100.00;99926.97;8263478;28;20093;-88
2023/09/23 01:52:56;;;;;;;4.35;0.80;;;;;;;13.20;100.00;99919.16;8259120;28;20085;-91
2023/09/23 01:56:57;;;;;;;3.22;0.93;;;;;;;13.27;100.00;99939.19;8260289;28;20263;-91
2023/09/23 02:00:58;;;;;;;7.18;1.23;;;;;;;13.40;100.00;99934.94;8265090;28;20033;-91
2023/09/23 02:04:59;;;;;;;5.47;1.20;;;;;;;13.37;100.00;99931.69;8257415;28;20099;-95
2023/09/23 02:08:59;;;;;;;4.05;1.20;;;;;;;13.37;100.00;99946.13;8300008;28;20029;-93
2023/09/23 02:13:00;;;;;;;3.28;1.27;;;;;;;13.42;100.00;99945.63;8262177;28;20411;-92
2023/09/23 02:17:00;;;;;;;3.15;1.20;;;;;;;13.37;100.00;99950.72;8249578;28;20064;-93
2023/09/23 02:21:01;;;;;;;3.08;1.35;;;;;;;13.33;100.00;99941.22;8284007;28;20061;-89
2023/09/23 02:25:04;;;;;;;3.80;1.80;;;;;;;13.41;100.00;99947.47;8288144;28;20053;-89
2023/09/23 02:29:06;;;;;;;5.72;1.25;;;;;;;13.31;100.00;99952.25;8292050;28;20545;-88
2023/09/23 02:33:08;;;;;;;5.68;1.88;;;;;;;13.33;100.00;99949.38;8286488;28;20499;-89
2023/09/23 02:37:09;;;;;;;2.53;1.50;;;;;;;13.15;100.00;99962.28;8311711;28;20099;-89
2023/09/23 02:41:11;;;;;;;7.53;2.00;;;;;;;13.29;100.00;99965.13;8277661;28;20041;-89
2023/09/23 02:45:13;;;;;;;2.60;1.30;;;;;;;13.37;100.00;99977.84;8298297;28;20631;-91
2023/09/23 02:49:15;;;;;;;10.48;1.52;;;;;;;13.49;100.00;99987.34;8286886;28;20020;-89
2023/09/23 02:53:17;;;;;;;6.93;1.35;;;;;;;13.44;100.00;99985.16;8279159;28;20466;-88
2023/09/23 02:57:17;;;;;;;8.45;1.33;;;;;;;13.43;100.00;99982.59;8292606;28;20077;-88
2023/09/23 03:01:18;;;;;;;4.10;1.23;;;;;;;13.26;100.00;99964.63;8280370;28;20117;-88
2023/09/23 03:05:26;;;;;;;5.88;1.35;;;;;;;13.34;100.00;99992.63;8275420;28;20120;-88
2023/09/23 03:09:32;;;;;;;2.78;1.08;;;;;;;13.43;100.00;99993.47;8292307;28;20532;-88
2023/09/23 03:13:34;;;;;;;7.65;1.02;;;;;;;13.36;100.00;99992.47;8268437;28;20120;-93
2023/09/23 03:17:35;;;;;;;8.02;1.23;;;;;;;13.41;100.00;99987.34;8280751;28;20463;-92
2023/09/23 03:21:42;;;;;;;4.85;1.27;;;;;;;13.27;100.00;99988.06;8298801;28;20068;-93
2023/09/23 03:25:44;;;;;;;3.95;0.98;;;;;;;13.11;100.00;99998.91;8280581;28;20037;-93
2023/09/23 03:29:46;;;;;;;3.17;1.10;;;;;;;12.95;100.00;99977.16;8256958;28;20321;-91
2023/09/23 03:33:47;;;;;;;2.97;1.10;;;;;;;13.15;100.00;99989.41;8243851;28;20216;-90
2023/09/23 03:37:49;;;;;;;7.47;1.45;;;;;;;13.14;100.00;100003.97;8237256;28;20045;-91
2023/09/23 03:41:50;;;;;;;4.63;1.02;;;;;;;13.25;100.00;99984.66;8297872;28;20061;-88
2023/09/23 03:45:51;;;;;;;3.95;1.20;;;;;;;13.36;100.00;99989.75;8291925;28;20044;-89
2023/09/23 03:49:51;;;;;;;2.50;0.93;;;;;;;13.57;100.00;99990.03;8292402;28;20068;-88
2023/09/23 03:53:52;;;;;;;4.10;0.90;;;;;;;13.59;100.00;100001.59;8269102;28;20045;-90
2023/09/23 03:57:54;;;;;;;3.97;1.10;;;;;;;13.81;100.00;100004.44;8284473;28;20042;-89
2023/09/23 04:01:55;;;;;;;8.00;1.00;;;;;;;13.94;100.00;100006.63;8289452;28;20106;-89
2023/09/23 04:05:57;;;;;;;7.38;0.88;;;;;;;14.05;100.00;100016.22;8307899;28;20038;-89
2023/09/23 04:09:58;;;;;;;5.50;1.02;;;;;;;14.16;100.00;100019.44;8255170;28;20049;-92
2023/09/23 04:13:58;;;;;;;8.27;1.35;;;;;;;14.03;100.00;100007.44;8275467;28;20055;-89
2023/09/23 04:18:03;;;;;;;8.25;0.98;;;;;;;14.03;100.00;100024.56;8281570;28;20575;-89
2023/09/23 04:22:04;;;;;;;3.55;1.13;;;;;;;13.95;100.00;100015.59;8298072;28;20041;-90
2023/09/23 04:26:05;;;;;;;5.13;0.98;;;;;;;13.98;100.00;100018.81;8279752;28;20025;-90
2023/09/23 04:30:11;;;;;;;4.05;1.63;;;;;;;14.13;99.63;100014.34;8301090;28;20029;-89
2023/09/23 04:34:13;;;;;;;4.43;1.17;;;;;;;14.29;98.46;100018.91;8281748;28;20520;-90
2023/09/23 04:38:15;;;;;;;4.97;1.00;;;;;;;14.23;98.13;100025.91;8285334;28;20164;-89
2023/09/23 04:42:17;;;;;;;3.60;0.90;;;;;;;14.30;97.78;100051.34;8281437;28;20034;-93
2023/09/23 04:46:17;;;;;;;2.65;0.70;;;;;;;14.13;98.04;100027.94;8267966;28;20508;-90
2023/09/23 04:50:18;;;;;;;3.10;0.82;;;;;;;14.11;98.79;100042.72;8313917;28;20045;-89
2023/09/23 04:54:18;;;;;;;4.88;1.08;;;;;;;13.99;99.30;100034.09;8295285;28;20057;-89
2023/09/23 04:58:19;;;;;;;4.57;1.00;;;;;;;14.02;99.19;100058.22;8276197;28;20135;-92
2023/09/23 05:02:20;;;;;;;8.15;1.23;;;;;;;13.95;100.00;100048.22;8294434;28;20076;-92
2023/09/23 05:06:20;;;;;;;3.67;0.85;;;;;;;13.95;100.00;100069.94;8280749;28;20094;-90
2023/09/23 05:10:22;;;;;;;5.90;0.90;;;;;;;13.93;100.00;100061.16;8295680;28;20034;-88
2023/09/23 05:14:25;;;;;;;6.07;1.35;;;;;;;13.91;100.00;100083.06;8262990;28;20108;-91
2023/09/23 05:18:25;;;;;;;1.92;0.85;;;;;;;13.93;100.00;100089.16;8302039;28;20033;-89
2023/09/23 05:22:25;;;;;;;5.45;1.60;;;;;;;13.82;100.00;100097.66;8286517;28;20491;-89
2023/09/23 05:26:26;;;;;;;4.20;1.08;;;;;;;13.83;100.00;100100.22;8300144;28;20040;-89
2023/09/23 05:30:27;;;;;;;3.35;1.00;;;;;;;13.91;100.00;100112.94;8313642;28;20056;-89
2023/09/23 05:34:27;;;;;;;4.97;1.23;;;;;;;13.96;100.00;100110.53;8288048;28;20051;-96
2023/09/23 05:38:28;;;;;;;3.70;1.05;;;;;;;14.08;100.00;100117.31;8295264;28;20044;-96
2023/09/23 05:42:30;;;;;;;4.05;1.20;;;;;;;13.99;100.00;100131.13;8277888;28;20029;-91
2023/09/23 05:46:31;;;;;;;6.53;1.10;;;;;;;13.89;100.00;100147.59;8288140;28;20096;-91
2023/09/23 05:50:31;;;;;;;3.47;1.23;;;;;;;13.68;100.00;100150.81;8281554;28;20059;-96
2023/09/23 05:54:32;;;;;;;3.42;1.48;;;;;;;13.59;100.00;100157.28;8266753;28;20042;-90
2023/09/23 05:58:32;;;;;;;3.88;1.65;;;;;;;13.63;100.00;100168.63;8300252;28;20034;-92
2023/09/23 06:02:33;;;;;;;4.50;1.58;;;;;;;13.71;100.00;100171.34;8264167;28;20030;-89
2023/09/23 06:06:34;;;;;;;6.25;1.40;;;;;;;13.48;100.00;100186.63;8282964;28;20041;-88
2023/09/23 06:10:35;;;;;;;6.63;1.58;;;;;;;13.45;100.00;100203.25;8315417;28;20502;-90
2023/09/23 06:14:36;;;;;;;7.30;1.67;;;;;;;13.54;100.00;100211.22;8333535;28;20040;-88
2023/09/23 06:18:36;;;;;;;6.53;1.50;;;;;;;13.64;100.00;100208.38;8299920;28;20034;-89
2023/09/23 06:22:38;;;;;;;6.45;1.00;;;;;;;13.78;100.00;100218.56;8297365;28;20037;-89
2023/09/23 06:26:38;;;;;;;2.75;1.17;;;;;;;13.92;100.00;100223.34;8276950;28;20038;-90
2023/09/23 06:30:41;;;;;;;3.78;0.95;;;;;;;14.18;98.30;100221.28;8273584;28;20518;-90
2023/09/23 06:34:41;;;;;;;4.55;1.00;;;;;;;14.54;97.13;100236.25;8290603;28;20518;-90
2023/09/23 06:39:15;;;;;;;3.13;1.23;;;;;;;14.96;96.80;100217.78;8297923;28;20396;-89
2023/09/23 06:43:16;;;;;;;3.72;1.13;;;;;;;15.59;92.08;100214.94;8202714;28;20193;-89
2023/09/23 06:47:17;;;;;;;5.55;0.98;;;;;;;15.82;89.87;100234.03;8246220;28;20022;-90
2023/09/23 06:51:18;;;;;;;2.67;1.17;;;;;;;16.09;88.65;100258.00;8265067;28;20041;-89
2023/09/23 06:55:19;;;;;;;2.72;0.82;;;;;;;16.10;89.05;100255.09;8304735;28;20044;-90
2023/09/23 06:59:19;;;;;;;6.05;1.00;;;;;;;16.24;88.40;100269.81;8299099;28;20041;-90
2023/09/23 07:03:20;;;;;;;4.45;0.80;;;;;;;16.10;88.92;100276.91;8314193;28;20067;-95
2023/09/23 07:07:20;;;;;;;3.78;0.80;;;;;;;16.04;90.41;100293.19;8268313;28;20037;-96
2023/09/23 07:11:21;;;;;;;5.30;0.90;;;;;;;16.21;90.53;100289.28;8319217;28;20041;-96
2023/09/23 07:15:21;;;;;;;1.73;0.73;;;;;;;16.44;88.73;100287.44;8280729;28;20034;-96
2023/09/23 07:19:22;;;;;;;4.53;0.80;;;;;;;16.73;87.59;100291.09;8278779;28;20040;-96
2023/09/23 07:23:22;;;;;;;3.80;0.77;;;;;;;16.86;87.01;100307.66;8298429;28;20060;-94
2023/09/23 07:27:24;;;;;;;4.40;1.25;;;;;;;17.09;85.63;100324.84;8315032;28;20048;-95
2023/09/23 07:31:25;;;;;;;2.13;0.50;;;;;;;17.08;85.51;100316.84;8290552;28;20021;-92
2023/09/23 07:35:31;;;;;;;2.28;0.80;;;;;;;17.18;83.46;100329.19;8251017;28;20169;-95
2023/09/23 07:39:32;;;;;;;2.63;0.60;;;;;;;17.32;84.08;100338.41;8290245;28;20109;-96
2023/09/23 07:43:33;;;;;;;6.13;1.00;;;;;;;17.33;82.82;100338.22;8299697;28;20060;-96
2023/09/23 07:47:33;;;;;;;2.70;0.98;;;;;;;17.42;82.18;100348.03;8281830;28;20049;-96
2023/09/23 07:51:35;;;;;;;3.50;0.90;;;;;;;17.40;81.83;100350.13;8273258;28;20045;-93
2023/09/23 07:55:37;;;;;;;1.35;0.50;;;;;;;17.49;81.61;100359.09;8262822;28;20573;-86
2023/09/23 07:59:37;;;;;;;5.25;1.00;;;;;;;17.60;81.65;100355.91;8278335;28;20045;-88
2023/09/23 08:03:38;;;;;;;3.92;0.68;;;;;;;17.66;81.23;100366.09;8302544;28;20065;-89
2023/09/23 08:07:38;;;;;;;2.55;0.65;;;;;;;17.69;80.08;100365.69;8274954;28;20042;-89
2023/09/23 08:11:39;;;;;;;5.68;0.80;;;;;;;17.78;79.33;100370.00;8318721;28;20034;-88
2023/09/23 08:15:39;;;;;;;3.17;0.60;;;;;;;17.90;80.25;100390.34;8314841;28;20038;-95
2023/09/23 08:19:40;;;;;;;4.07;0.75;;;;;;;18.02;80.16;100380.63;8289687;28;20096;-96
2023/09/23 08:23:42;;;;;;;2.63;0.73;;;;;;;18.31;79.19;100402.47;8296966;28;20044;-94
2023/09/23 08:27:43;;;;;;;4.97;0.80;;;;;;;18.16;78.66;100390.72;8290951;28;20044;-95
2023/09/23 08:31:44;;;;;;;3.67;0.70;;;;;;;18.32;78.81;100395.94;8289371;28;20041;-95
2023/09/23 08:35:47;;;;;;;3.85;0.50;;;;;;;18.40;77.31;100393.13;8262281;28;20041;-90
2023/09/23 08:39:49;;;;;;;4.22;0.65;;;;;;;18.31;77.27;100394.25;8298137;28;20046;-96
2023/09/23 08:43:51;;;;;;;1.85;0.52;;;;;;;18.60;77.87;100421.56;8298218;28;20048;-95
2023/09/23 08:47:53;;;;;;;4.70;0.75;;;;;;;18.98;76.68;100414.78;8272364;28;20453;-94
2023/09/23 08:51:55;;;;;;;3.58;0.70;;;;;;;18.55;76.63;100407.63;8282532;28;20049;-94
2023/09/23 08:55:55;;;;;;;4.45;1.08;;;;;;;18.32;77.42;100423.31;8281211;28;20096;-94
2023/09/23 08:59:57;;;;;;;4.70;0.90;;;;;;;18.12;78.42;100449.59;8281474;28;20057;-94
2023/09/23 09:03:58;;;;;;;5.35;0.88;;;;;;;17.90;78.28;100450.53;8292366;28;20054;-89
2023/09/23 09:07:59;;;;;;;4.28;1.23;;;;;;;18.10;78.11;100459.88;8276802;28;20057;-90
2023/09/23 09:12:00;;;;;;;2.42;0.70;;;;;;;18.11;78.17;100442.41;8276379;28;20041;-89
2023/09/23 09:16:04;;;;;;;1.65;0.50;;;;;;;19.16;73.99;100450.75;8278602;28;20053;-92
2023/09/23 09:20:11;;;;;;;5.90;1.27;;;;;;;19.17;73.24;100466.19;8290648;28;20504;-89
2023/09/23 09:24:11;;;;;;;3.65;0.88;;;;;;;18.84;74.56;100467.75;8284439;28;20026;-89
2023/09/23 09:28:12;;;;;;;2.78;0.80;;;;;;;20.10;71.05;100487.78;8284194;28;20129;-91
2023/09/23 09:32:16;;;;;;;2.08;0.55;;;;;;;22.48;63.22;100475.56;8293215;28;20131;-89
2023/09/23 09:36:18;;;;;;;2.15;0.60;;;;;;;23.38;60.88;100480.81;8278146;28;20107;-90
2023/09/23 09:40:21;;;;;;;4.28;0.77;;;;;;;22.52;62.02;100478.78;8279857;28;20519;-92
2023/09/23 09:44:25;;;;;;;1.80;0.50;;;;;;;22.37;62.45;100481.78;8270226;28;20045;-88
2023/09/23 09:48:28;;;;;;;8.63;0.80;;;;;;;22.45;63.25;100495.28;8277117;28;20022;-88
2023/09/23 09:52:29;;;;;;;3.40;0.70;;;;;;;22.31;61.28;100495.56;8269830;28;20419;-89
2023/09/23 09:56:32;;;;;;;2.45;0.88;;;;;;;23.49;58.98;100515.13;8272543;28;20034;-88
2023/09/23 10:00:42;;;;;;;6.53;0.70;;;;;;;23.90;57.94;100507.97;8282995;28;21158;-89
2023/09/23 10:04:49;;;;;;;4.15;0.55;;;;;;;24.08;56.68;100493.34;8320201;28;20044;-88
2023/09/23 10:08:49;;;;;;;2.90;0.70;;;;;;;24.13;57.31;100507.34;8278885;28;20534;-89
2023/09/23 10:12:50;;;;;;;2.65;0.80;;;;;;;24.19;57.17;100496.22;8274326;28;20030;-92
2023/09/23 10:16:59;;;;;;;2.17;0.70;;;;;;;24.16;56.66;100520.69;8298130;28;20072;-94
2023/09/23 10:21:02;;;;;;;1.10;0.40;;;;;;;23.88;56.19;100526.66;8268602;28;20066;-95
2023/09/23 10:25:05;;;;;;;6.22;0.80;;;;;;;21.81;62.19;100516.44;8302181;28;20042;-95
2023/09/23 10:29:06;;;;;;;6.07;0.80;;;;;;;22.10;62.04;100521.47;8277139;28;20057;-95
2023/09/23 10:33:06;;;;;;;2.53;0.68;;;;;;;22.42;62.24;100534.28;8297989;28;20076;-90
2023/09/23 10:37:07;;;;;;;1.67;0.60;;;;;;;21.76;62.77;100532.75;8296395;28;20041;-92
2023/09/23 10:41:09;;;;;;;1.25;0.60;;;;;;;22.93;60.74;100543.47;8281906;28;20119;-90
2023/09/23 10:45:10;;;;;;;1.75;0.60;;;;;;;23.59;59.17;100543.06;8289447;28;20033;-91
2023/09/23 10:49:11;;;;;;;2.20;0.93;;;;;;;23.92;56.92;100544.50;8257919;28;20053;-90
2023/09/23 10:53:13;;;;;;;1.83;0.40;;;;;;;24.38;54.78;100527.47;8304414;28;20338;-90
2023/09/23 10:57:14;;;;;;;2.42;0.50;;;;;;;24.39;54.16;100534.69;8282405;28;20049;-93
2023/09/23 11:01:15;;;;;;;2.00;0.50;;;;;;;24.99;53.91;100539.28;8319521;28;20065;-90
2023/09/23 11:05:16;;;;;;;1.60;0.50;;;;;;;23.88;53.84;100539.66;8268366;28;20046;-91
2023/09/23 11:09:21;;;;;;;1.90;0.40;;;;;;;23.71;54.18;100563.34;8272337;28;20042;-89
2023/09/23 11:13:21;;;;;;;3.35;0.70;;;;;;;21.80;57.89;100556.00;8300299;28;20432;-91
2023/09/23 11:17:26;;;;;;;0.75;0.40;;;;;;;21.94;58.65;100574.22;8273087;28;20041;-90
2023/09/23 11:21:26;;;;;;;2.60;0.75;;;;;;;20.79;61.65;100588.31;8270972;28;20022;-90
2023/09/23 11:25:27;;;;;;;2.35;0.60;;;;;;;22.30;58.66;100569.13;8270439;28;20517;-90
2023/09/23 11:29:27;;;;;;;3.05;0.80;;;;;;;23.82;55.50;100581.97;8261644;28;20033;-90
2023/09/23 11:33:28;;;;;;;4.40;0.90;;;;;;;25.03;53.39;100593.06;8302092;28;20049;-89
2023/09/23 11:37:29;;;;;;;3.13;1.40;;;;;;;24.73;52.85;100592.19;8285361;28;20488;-91
2023/09/23 11:41:30;;;;;;;2.55;1.60;;;;;;;24.27;53.72;100592.63;8285266;28;20435;-92
2023/09/23 11:45:32;;;;;;;5.07;2.10;;;;;;;23.89;54.46;100593.81;8274789;28;20507;-90
2023/09/23 11:49:33;;;;;;;2.53;1.92;;;;;;;23.18;56.02;100598.72;8283185;28;20037;-90
2023/09/23 11:53:36;;;;;;;2.03;1.75;;;;;;;23.11;56.32;100607.03;8274327;28;20048;-90
2023/09/23 11:57:37;;;;;;;5.13;1.75;;;;;;;24.04;54.73;100591.59;8303742;28;20448;-91
2023/09/23 12:01:37;;;;;;;1.73;1.40;;;;;;;24.37;53.88;100614.25;8278519;28;20061;-90
2023/09/23 12:05:38;;;;;;;3.10;1.30;;;;;;;24.87;53.31;100615.84;8294564;28;20049;-93
2023/09/23 12:09:39;;;;;;;2.25;1.33;;;;;;;25.35;52.77;100602.91;8284243;28;20095;-90
2023/09/23 12:13:40;;;;;;;2.58;1.27;;;;;;;25.77;51.23;100620.38;8290071;28;20072;-90
2023/09/23 12:17:40;;;;;;;1.83;1.50;;;;;;;25.64;52.18;100618.66;8271660;28;20038;-90
2023/09/23 12:21:42;;;;;;;3.10;1.25;;;;;;;25.34;51.25;100636.34;8274895;28;20029;-90
2023/09/23 12:25:45;;;;;;;2.67;1.35;;;;;;;22.45;55.75;100622.03;8260166;28;20049;-89
2023/09/23 12:29:46;;;;;;;2.53;2.08;;;;;;;22.57;57.94;100639.66;8273128;28;20034;-89
2023/09/23 12:33:46;;;;;;;3.00;1.50;;;;;;;23.34;55.69;100622.22;8295706;28;20038;-93
2023/09/23 12:37:48;;;;;;;2.00;1.30;;;;;;;23.00;56.41;100626.19;8265338;28;20042;-95
2023/09/23 12:41:50;;;;;;;2.67;1.20;;;;;;;22.54;56.48;100634.56;8281142;28;20106;-91
2023/09/23 12:45:50;;;;;;;2.00;0.90;;;;;;;22.44;57.13;100636.03;8290846;28;20050;-94
2023/09/23 12:49:53;;;;;;;2.58;1.20;;;;;;;21.75;58.45;100621.88;8261052;28;20045;-94
2023/09/23 12:53:54;;;;;;;2.45;1.27;;;;;;;21.81;58.90;100651.31;8285538;28;20046;-94
2023/09/23 12:57:55;;;;;;;3.42;1.48;;;;;;;21.12;60.67;100612.19;8283560;28;20062;-93
2023/09/23 13:01:55;;;;;;;3.20;0.88;;;;;;;20.97;60.26;100647.22;8277970;28;20506;-95
2023/09/23 13:05:56;;;;;;;2.42;0.90;;;;;;;20.96;61.15;100655.69;8281714;28;20042;-96
2023/09/23 13:09:57;;;;;;;3.30;1.25;;;;;;;20.79;62.11;100648.78;8313748;28;20815;-95
2023/09/23 13:13:57;;;;;;;3.38;1.00;;;;;;;20.90;62.35;100656.47;8298928;28;20045;-95
2023/09/23 13:18:00;;;;;;;3.28;1.00;;;;;;;21.41;62.61;100660.53;8274549;28;20056;-94
2023/09/23 13:22:01;;;;;;;3.00;0.80;;;;;;;21.06;60.25;100667.13;8270560;28;20231;-94
2023/09/23 13:26:01;;;;;;;2.70;0.73;;;;;;;21.00;60.20;100657.81;8281999;28;20053;-94
2023/09/23 13:30:02;;;;;;;0.63;0.55;;;;;;;20.93;60.81;100634.06;8289895;28;20038;-95
2023/09/23 13:34:06;;;;;;;4.28;1.10;;;;;;;20.83;61.35;100633.59;8298514;28;20104;-96
2023/09/23 13:38:07;;;;;;;1.50;0.70;;;;;;;20.83;60.88;100636.34;8282993;28;20038;-95
2023/09/23 13:42:08;;;;;;;1.98;0.60;;;;;;;20.85;60.61;100664.47;8295021;28;20037;-90
2023/09/23 13:46:08;;;;;;;0.88;0.60;;;;;;;20.84;60.82;100674.63;8335270;28;20044;-91
2023/09/23 13:50:09;;;;;;;2.38;0.60;;;;;;;20.61;61.11;100676.78;8286108;28;20041;-91
2023/09/23 13:54:10;;;;;;;3.92;0.90;;;;;;;20.65;62.68;100680.00;8285324;28;20044;-90
2023/09/23 13:58:11;;;;;;;4.40;0.80;;;;;;;20.82;61.72;100686.84;8299308;28;20042;-90
2023/09/23 14:02:14;;;;;;;3.17;0.75;;;;;;;20.88;60.86;100670.41;8295682;28;20042;-91
2023/09/23 14:06:15;;;;;;;2.72;0.73;;;;;;;21.11;61.64;100681.13;8269920;28;20043;-93
2023/09/23 14:10:15;;;;;;;1.95;0.60;;;;;;;21.07;60.52;100666.06;8285081;28;20045;-91
2023/09/23 14:14:16;;;;;;;2.85;1.05;;;;;;;21.08;61.51;100687.03;8268310;28;20126;-89
2023/09/23 14:18:16;;;;;;;1.05;0.40;;;;;;;20.89;60.58;100676.75;8296849;28;20044;-90
2023/09/23 14:22:17;;;;;;;4.95;0.77;;;;;;;20.96;60.38;100663.94;8302303;28;20021;-92
2023/09/23 14:26:17;;;;;;;1.60;0.60;;;;;;;21.02;60.87;100671.34;8298325;28;20496;-91
2023/09/23 14:30:18;;;;;;;4.68;0.88;;;;;;;21.19;61.22;100691.94;8268785;28;20105;-89
2023/09/23 14:34:19;;;;;;;3.13;0.73;;;;;;;21.16;62.14;100662.09;8293341;28;20041;-90
2023/09/23 14:38:20;;;;;;;5.55;0.75;;;;;;;21.10;60.25;100690.41;8290981;28;20029;-92
2023/09/23 14:42:21;;;;;;;3.78;0.60;;;;;;;20.80;61.19;100688.97;8266781;28;20042;-91
2023/09/23 14:46:22;;;;;;;1.70;0.68;;;;;;;20.51;61.87;100683.69;8256157;28;20034;-91
2023/09/23 14:50:24;;;;;;;3.63;0.82;;;;;;;20.73;61.85;100710.03;8273913;28;20026;-91
2023/09/23 14:54:24;;;;;;;5.10;0.70;;;;;;;20.58;62.95;100706.56;8300910;28;20053;-92
2023/09/23 14:58:25;;;;;;;5.00;1.00;;;;;;;20.52;62.60;100701.91;8274433;28;20064;-92
2023/09/23 15:02:25;;;;;;;1.92;0.65;;;;;;;20.56;64.23;100720.50;8276628;28;20061;-92
2023/09/23 15:06:26;;;;;;;3.88;0.77;;;;;;;20.39;62.85;100718.25;8275753;28;20703;-92
2023/09/23 15:10:26;;;;;;;2.72;0.60;;;;;;;20.37;62.24;100712.94;8291146;28;20053;-92
2023/09/23 15:14:27;;;;;;;4.57;0.73;;;;;;;20.39;62.18;100723.75;8294513;28;20042;-91
2023/09/23 15:18:27;;;;;;;2.13;0.60;;;;;;;20.40;61.82;100745.50;8289376;28;20041;-91
2023/09/23 15:22:31;;;;;;;2.35;0.50;;;;;;;20.23;63.10;100730.38;8288473;28;20065;-93
2023/09/23 15:26:32;;;;;;;2.67;0.50;;;;;;;20.25;64.11;100743.91;8314029;28;20050;-91
2023/09/23 15:30:35;;;;;;;2.13;0.70;;;;;;;20.18;64.24;100743.84;8315604;28;20061;-91
2023/09/23 15:34:36;;;;;;;4.07;0.50;;;;;;;20.13;63.97;100748.25;8312564;28;20048;-92
2023/09/23 15:38:38;;;;;;;3.20;1.05;;;;;;;20.11;64.61;100764.88;8310839;28;20042;-90
2023/09/23 15:42:38;;;;;;;2.90;0.40;;;;;;;20.04;64.78;100763.97;8280347;28;20038;-91
2023/09/23 15:46:39;;;;;;;5.05;0.90;;;;;;;19.98;65.05;100764.75;8293012;28;20045;-91
2023/09/23 15:50:44;;;;;;;3.30;0.52;;;;;;;20.09;65.22;100782.56;8254859;28;20061;-91
2023/09/23 15:54:53;;;;;;;3.55;0.45;;;;;;;19.97;65.14;100767.69;8224911;28;20068;-92
2023/09/23 15:59:05;;;;;;;1.95;0.80;;;;;;;19.86;64.86;100738.00;8241193;28;20048;-90
2023/09/23 16:03:09;;;;;;;4.47;0.73;;;;;;;19.86;65.13;100743.47;8296524;28;20033;-92
2023/09/23 16:07:14;;;;;;;2.17;0.60;;;;;;;19.95;65.16;100775.25;8263157;28;20044;-92
2023/09/23 16:11:15;;;;;;;2.22;0.68;;;;;;;19.93;64.16;100788.31;8249257;28;20041;-92
2023/09/23 16:15:15;;;;;;;7.05;1.20;;;;;;;19.84;64.17;100778.50;8281517;28;20503;-91
2023/09/23 16:19:17;;;;;;;2.00;0.50;;;;;;;19.90;63.71;100806.03;8322368;28;20679;-92
2023/09/23 16:23:18;;;;;;;3.45;0.57;;;;;;;19.84;64.33;100811.41;8295956;28;20030;-96
2023/09/23 16:27:21;;;;;;;4.10;0.80;;;;;;;19.83;64.25;100815.22;8285276;28;20049;-95
2023/09/23 16:31:22;;;;;;;2.55;0.60;;;;;;;19.65;64.25;100801.06;8285655;28;20038;-96
2023/09/23 16:35:30;;;;;;;3.40;0.75;;;;;;;19.72;64.31;100802.84;8297723;28;20025;-92
2023/09/23 16:39:38;;;;;;;0.85;0.40;;;;;;;19.78;64.59;100828.66;8294754;28;20053;-92
2023/09/23 16:43:38;;;;;;;6.95;0.60;;;;;;;19.66;64.56;100832.94;8305927;28;20028;-93
2023/09/23 16:47:39;;;;;;;5.05;0.50;;;;;;;19.56;64.87;100824.16;8305114;28;20519;-96
2023/09/23 16:51:40;;;;;;;4.05;0.70;;;;;;;19.58;64.64;100841.28;8292371;28;20042;-96
2023/09/23 16:55:41;;;;;;;3.47;0.93;;;;;;;19.51;65.47;100840.34;8290944;22;20046;-87
2023/09/23 16:59:42;;;;;;;1.67;0.50;;;;;;;19.35;65.52;100824.94;8297568;28;20635;-87
2023/09/23 17:03:42;;;;;;;5.68;0.45;;;;;;;19.42;66.14;100861.53;8283085;28;20416;-87
2023/09/23 17:07:43;;;;;;;1.63;0.40;;;;;;;19.25;66.39;100855.34;8325639;28;21483;-87
2023/09/23 17:11:44;;;;;;;3.60;0.60;;;;;;;18.83;69.49;100822.22;8345569;28;20033;-88
2023/09/23 17:15:45;;;;;;;5.20;0.80;;;;;;;18.65;73.62;100868.28;8359267;28;20043;-88
2023/09/23 17:19:45;;;;;;;5.18;0.90;;;;;;;18.18;76.96;100848.41;8336714;28;20045;-87
2023/09/23 17:23:47;;;;;;;2.05;0.85;;;;;;;18.08;78.63;100866.09;8336548;28;20029;-87
2023/09/23 17:27:54;;;;;;;8.55;1.00;;;;;;;18.12;82.01;100920.28;8355163;28;20037;-86
2023/09/23 17:31:55;;;;;;;4.07;1.00;;;;;;;17.49;85.18;100870.31;8327423;28;20036;-86
2023/09/23 17:35:56;;;;;;;2.65;1.00;;;;;;;17.76;88.23;100935.50;8351330;28;20044;-87
2023/09/23 17:39:59;;;;;;;5.13;1.33;;;;;;;17.58;89.17;100921.19;8333306;28;20052;-86
2023/09/23 17:44:00;;;;;;;4.97;1.02;;;;;;;17.51;90.04;100920.22;8341868;28;20051;-87
2023/09/23 17:48:01;;;;;;;4.63;1.10;;;;;;;17.53;90.75;100934.53;8348306;28;20032;-87
2023/09/23 17:52:01;;;;;;;3.22;1.02;;;;;;;17.60;92.03;100960.19;8327649;28;20056;-87
2023/09/23 17:56:03;;;;;;;3.75;1.17;;;;;;;17.67;92.12;100969.38;8352586;28;20033;-87
2023/09/23 18:00:10;;;;;;;4.53;1.20;;;;;;;17.26;92.04;100910.34;8329258;28;20053;-88
2023/09/23 18:04:14;;;;;;;4.05;1.10;;;;;;;17.30;91.40;100911.69;8308527;28;20032;-86
2023/09/23 18:08:17;;;;;;;8.35;1.48;;;;;;;17.24;93.15;100931.50;8324807;28;20033;-87
2023/09/23 18:12:23;;;;;;;9.00;1.60;;;;;;;17.44;95.38;100974.72;8312503;28;20033;-87
2023/09/23 18:16:24;;;;;;;5.65;1.65;;;;;;;17.28;94.59;100935.59;8326137;28;20114;-87
2023/09/23 18:20:25;;;;;;;4.95;1.23;;;;;;;17.22;94.76;100925.34;8345568;28;20043;-87
2023/09/23 18:24:25;;;;;;;4.90;1.50;;;;;;;17.47;95.67;100995.38;8312928;28;20650;-88
2023/09/23 18:28:29;;;;;;;4.47;1.48;;;;;;;17.21;97.87;101000.16;8336215;28;20601;-87
2023/09/23 18:32:33;;;;;;;5.03;1.65;;;;;;;16.73;99.41;100940.91;8328173;28;20033;-87
2023/09/23 18:36:36;;;;;;;6.85;1.92;;;;;;;16.93;97.18;100998.81;8334841;28;20097;-87
2023/09/23 18:40:37;;;;;;;5.75;1.77;;;;;;;16.94;94.42;100970.47;8331156;28;20526;-86
2023/09/23 18:44:41;;;;;;;6.90;1.67;;;;;;;17.43;92.65;101026.84;8311663;28;20037;-87